Big Bear Station Historical Data
Daily Summary for January 23, 2019 Units:  English    Metric   Both
Next Day »
Daily Weekly Monthly Yearly Custom
  High: Low: Average:
Temperature: 55.8 °F 24.4 °F 35.3 °F
Dew Point: 24.4 °F -2.5 °F 13 °F
Humidity: 79% 21% 42%
Wind Speed: 4.2mph 0.0mph 0.6mph
Wind Gust: -999.0mph - -
Wind- - SW
Pressure: 23.72 in 23.62 in -
Precipitation: 0.07 in    
Historical Graphs
 
 
Tabular Data for January 23, 2019
Time Temperature Dew Point Pressure Wind Wind Speed Wind Gust Humidity Rainfall Rate (Hourly)
00:07 24.4 °F 0.6 °F 23.68 in South 2.7 mph -999.0 mph 35% 0.00 in
00:22 25.0 °F 1.8 °F 23.68 in Calm   -999.0 mph 36% 0.00 in
00:37 25.2 °F -1.2 °F 23.68 in Calm   -999.0 mph 31% 0.00 in
00:52 25.3 °F 3.2 °F 23.68 in SSE 2.2 mph -999.0 mph 38% 0.00 in
01:08 25.3 °F 0.8 °F 23.68 in SSE 1.7 mph -999.0 mph 34% 0.00 in
01:23 25.2 °F -1.9 °F 23.68 in Calm   -999.0 mph 30% 0.00 in
01:38 25.0 °F 4.6 °F 23.69 in Calm   -999.0 mph 41% 0.00 in
01:54 26.2 °F 3.4 °F 23.68 in South 2.7 mph -999.0 mph 37% 0.00 in
02:09 26.6 °F 2.0 °F 23.68 in South 2.7 mph -999.0 mph 34% 0.00 in
02:25 26.2 °F 2.2 °F 23.68 in South 2.2 mph -999.0 mph 35% 0.00 in
02:40 26.8 °F -0.5 °F 23.68 in South 2.2 mph -999.0 mph 30% 0.00 in
02:55 27.0 °F 0.3 °F 23.68 in South 2.7 mph -999.0 mph 31% 0.00 in
03:10 26.8 °F -0.5 °F 23.68 in South 1.7 mph -999.0 mph 30% 0.00 in
03:25 26.8 °F -2.0 °F 23.68 in Calm   -999.0 mph 28% 0.00 in
03:41 27.5 °F 0.1 °F 23.68 in South 2.7 mph -999.0 mph 30% 0.00 in
03:56 27.0 °F -1.1 °F 23.68 in Calm   -999.0 mph 29% 0.00 in
04:12 27.1 °F -2.5 °F 23.68 in Calm   -999.0 mph 27% 0.00 in
04:27 27.1 °F 1.8 °F 23.68 in South 2.7 mph -999.0 mph 33% 0.00 in
04:43 27.0 °F 2.3 °F 23.67 in Calm   -999.0 mph 34% 0.00 in
04:58 26.8 °F 0.8 °F 23.68 in Calm   -999.0 mph 32% 0.00 in
05:13 27.0 °F 3.6 °F 23.68 in SSE 4.2 mph -999.0 mph 36% 0.00 in
05:28 26.8 °F 6.2 °F 23.68 in Calm   -999.0 mph 41% 0.00 in
05:44 27.0 °F 6.9 °F 23.68 in South 2.7 mph -999.0 mph 42% 0.00 in
05:59 27.1 °F 4.2 °F 23.69 in Calm   -999.0 mph 37% 0.00 in
06:14 27.0 °F 8.5 °F 23.69 in Calm   -999.0 mph 45% 0.00 in
06:29 27.0 °F 6.4 °F 23.69 in Calm   -999.0 mph 41% 0.00 in
06:44 28.0 °F 6.8 °F 23.69 in South 2.7 mph -999.0 mph 40% 0.00 in
07:00 28.0 °F 5.1 °F 23.69 in Calm   -999.0 mph 37% 0.00 in
07:15 28.0 °F 6.2 °F 23.70 in Calm   -999.0 mph 39% 0.00 in
07:30 28.2 °F 4.6 °F 23.70 in Calm   -999.0 mph 36% 0.00 in
07:45 28.2 °F 5.2 °F 23.70 in Calm   -999.0 mph 37% 0.00 in
08:00 28.9 °F 11.7 °F 23.71 in Calm   -999.0 mph 48% 0.00 in
08:16 29.8 °F 7.8 °F 23.71 in Calm   -999.0 mph 39% 0.00 in
08:31 29.8 °F 10.0 °F 23.71 in Calm   -999.0 mph 43% 0.00 in
08:46 32.9 °F 12.8 °F 23.72 in Calm   -999.0 mph 43% 0.00 in
09:01 34.3 °F 15.1 °F 23.71 in Calm   -999.0 mph 45% 0.00 in
09:16 36.5 °F 16.6 °F 23.72 in Calm   -999.0 mph 44% 0.00 in
09:32 38.1 °F 18.6 °F 23.72 in Calm   -999.0 mph 45% 0.00 in
09:47 40.3 °F 20.6 °F 23.71 in Calm   -999.0 mph 45% 0.00 in
10:02 42.4 °F 20.9 °F 23.72 in WNW 1.1 mph -999.0 mph 42% 0.00 in
10:17 44.8 °F 22.5 °F 23.71 in Calm   -999.0 mph 41% 0.00 in
10:33 45.5 °F 23.1 °F 23.71 in WNW 1.7 mph -999.0 mph 41% 0.00 in
10:48 47.1 °F 24.0 °F 23.71 in Calm   -999.0 mph 40% 0.00 in
11:03 48.9 °F 24.4 °F 23.71 in Calm   -999.0 mph 38% 0.00 in
11:18 49.6 °F 24.4 °F 23.71 in Calm   -999.0 mph 37% 0.00 in
11:33 51.3 °F 23.9 °F 23.70 in Calm   -999.0 mph 34% 0.00 in
11:49 52.2 °F 20.0 °F 23.69 in Calm   -999.0 mph 28% 0.00 in
12:04 52.3 °F 20.1 °F 23.68 in NW 2.7 mph -999.0 mph 28% 0.00 in
12:19 52.9 °F 17.1 °F 23.68 in Calm   -999.0 mph 24% 0.00 in
12:34 54.0 °F 14.9 °F 23.67 in Calm   -999.0 mph 21% 0.00 in
12:50 53.1 °F 17.2 °F 23.66 in Calm   -999.0 mph 24% 0.00 in
13:05 55.8 °F 18.5 °F 23.66 in Calm   -999.0 mph 23% 0.00 in
13:20 53.6 °F 19.5 °F 23.66 in Calm   -999.0 mph 26% 0.00 in
13:36 52.9 °F 15.0 °F 23.65 in NW 2.2 mph -999.0 mph 22% 0.00 in
13:51 52.3 °F 13.5 °F 23.64 in NW 2.7 mph -999.0 mph 21% 0.00 in
14:06 51.6 °F 15.0 °F 23.64 in NNW 4.2 mph -999.0 mph 23% 0.00 in
14:22 50.7 °F 15.2 °F 23.64 in NW 3.2 mph -999.0 mph 24% 0.00 in
14:37 50.4 °F 16.8 °F 23.64 in Calm   -999.0 mph 26% 0.00 in
14:52 49.8 °F 14.4 °F 23.63 in WNW 3.2 mph -999.0 mph 24% 0.00 in
15:07 49.8 °F 19.6 °F 23.63 in Calm   -999.0 mph 30% 0.00 in
15:23 48.7 °F 21.6 °F 23.63 in Calm   -999.0 mph 34% 0.00 in
15:38 48.0 °F 18.0 °F 23.62 in Calm   -999.0 mph 30% 0.00 in
15:53 47.1 °F 18.7 °F 23.62 in Calm   -999.0 mph 32% 0.00 in
16:09 46.2 °F 17.9 °F 23.62 in Calm   -999.0 mph 32% 0.00 in
16:24 45.3 °F 17.9 °F 23.63 in Calm   -999.0 mph 33% 0.00 in
16:39 44.8 °F 15.2 °F 23.63 in Calm   -999.0 mph 30% 0.00 in
16:54 43.7 °F 16.5 °F 23.63 in Calm   -999.0 mph 33% 0.00 in
17:09 42.8 °F 15.7 °F 23.63 in Calm   -999.0 mph 33% 0.00 in
17:25 41.0 °F 17.9 °F 23.63 in Calm   -999.0 mph 39% 0.00 in
17:40 39.6 °F 15.4 °F 23.62 in Calm   -999.0 mph 37% 0.00 in
17:55 37.8 °F 19.4 °F 23.62 in Calm   -999.0 mph 47% 0.00 in
18:10 36.5 °F 18.7 °F 23.62 in Calm   -999.0 mph 48% 0.00 in
18:26 35.2 °F 17.5 °F 23.63 in Calm   -999.0 mph 48% 0.00 in
18:41 34.3 °F 17.1 °F 23.64 in Calm   -999.0 mph 49% 0.00 in
18:56 33.8 °F 19.3 °F 23.64 in Calm   -999.0 mph 55% 0.00 in
19:11 32.5 °F 18.5 °F 23.63 in Calm   -999.0 mph 56% 0.00 in
19:26 32.0 °F 18.5 °F 23.64 in Calm   -999.0 mph 57% 0.00 in
19:42 31.3 °F 19.4 °F 23.64 in Calm   -999.0 mph 61% 0.00 in
19:57 30.6 °F 18.7 °F 23.64 in Calm   -999.0 mph 61% 0.00 in
20:12 30.0 °F 18.9 °F 23.64 in Calm   -999.0 mph 63% 0.00 in
20:27 29.7 °F 18.3 °F 23.63 in Calm   -999.0 mph 62% 0.00 in
20:42 29.3 °F 18.6 °F 23.64 in Calm   -999.0 mph 64% 0.00 in
20:58 28.8 °F 19.6 °F 23.64 in Calm   -999.0 mph 68% 0.00 in
21:13 28.6 °F 18.0 °F 23.64 in Calm   -999.0 mph 64% 0.00 in
21:28 28.0 °F 19.1 °F 23.64 in Calm   -999.0 mph 69% 0.00 in
21:43 27.3 °F 18.5 °F 23.64 in Calm   -999.0 mph 69% 0.00 in
21:58 27.1 °F 18.9 °F 23.64 in Calm   -999.0 mph 71% 0.00 in
22:14 27.0 °F 20.8 °F 23.64 in Calm   -999.0 mph 77% 0.00 in
22:29 26.8 °F 20.6 °F 23.65 in Calm   -999.0 mph 77% 0.00 in
22:44 26.6 °F 20.7 °F 23.65 in Calm   -999.0 mph 78% 0.00 in
22:59 26.4 °F 20.8 °F 23.65 in Calm   -999.0 mph 79% 0.00 in
23:15 25.9 °F 19.7 °F 23.65 in Calm   -999.0 mph 77% 0.00 in
23:30 25.9 °F 20.0 °F 23.65 in Calm   -999.0 mph 78% 0.00 in
23:45 25.7 °F 19.5 °F 23.65 in Calm   -999.0 mph 77% 0.00 in
Big Bear CA Weather